Airport View

Enter AWOS ICAO identifier for current METAR.

ex. KFNL

CYYB 080800Z AUTO 36005KT 9SM OVC048 03/M01 A2961 RMK SLP038

8 Apr 2020 08:51

Other Area AWOS: CYSB - CYXR - CYQA - CWBE

TAF CYYB 080738Z 0808/0820 23005KT P6SM OVC050 TEMPO 0808/0810 5SM -RA BR BKN008 OVC050 FM081000 06005KT P6SM -RA OVC015 TEMPO 0810/0815 21/2SM -DZ BR OVC007 PROB30 0810/0815 3/4SM -DZ BR OVC005 FM081500 08005KT P6SM OVC015 PROB30 0815/0818 OVC008 FM081800 12008KT P6SM BKN015 BKN025 RMK FCST BASED ON AUTO OBS. NXT FCST BY 081400Z